sensor_id;sensor_type;location;lat;lon;timestamp;pressure;altitude;pressure_sealevel;temperature;humidity
12775;BME280;6451;42.630;23.382;2023-12-28T00:01:51;95481.19;;;5.51;100.00
12775;BME280;6451;42.630;23.382;2023-12-28T00:04:18;95475.97;;;5.36;100.00
12775;BME280;6451;42.630;23.382;2023-12-28T00:06:46;95445.09;;;5.05;100.00
12775;BME280;6451;42.630;23.382;2023-12-28T00:09:20;95485.28;;;5.20;100.00
12775;BME280;6451;42.630;23.382;2023-12-28T00:11:47;95480.09;;;5.28;100.00
12775;BME280;6451;42.630;23.382;2023-12-28T00:14:14;95484.78;;;5.18;100.00
12775;BME280;6451;42.630;23.382;2023-12-28T00:16:42;95481.63;;;5.11;100.00
12775;BME280;6451;42.630;23.382;2023-12-28T00:19:09;95468.78;;;5.02;100.00
12775;BME280;6451;42.630;23.382;2023-12-28T00:21:36;95421.22;;;4.69;100.00
12775;BME280;6451;42.630;23.382;2023-12-28T00:24:05;95493.59;;;4.94;100.00
12775;BME280;6451;42.630;23.382;2023-12-28T00:26:31;95489.63;;;4.87;100.00
12775;BME280;6451;42.630;23.382;2023-12-28T00:28:59;95486.94;;;4.87;100.00
12775;BME280;6451;42.630;23.382;2023-12-28T00:31:26;95493.22;;;4.77;100.00
12775;BME280;6451;42.630;23.382;2023-12-28T00:33:53;95471.56;;;4.58;100.00
12775;BME280;6451;42.630;23.382;2023-12-28T00:36:20;95464.56;;;4.57;100.00
12775;BME280;6451;42.630;23.382;2023-12-28T00:38:47;95492.25;;;4.58;100.00
12775;BME280;6451;42.630;23.382;2023-12-28T00:41:15;95493.63;;;4.55;100.00
12775;BME280;6451;42.630;23.382;2023-12-28T00:43:42;95491.47;;;4.52;100.00
12775;BME280;6451;42.630;23.382;2023-12-28T00:46:09;95492.53;;;4.61;100.00
12775;BME280;6451;42.630;23.382;2023-12-28T00:48:36;95504.78;;;4.33;100.00
12775;BME280;6451;42.630;23.382;2023-12-28T00:51:03;95478.47;;;4.30;100.00
12775;BME280;6451;42.630;23.382;2023-12-28T00:53:30;95486.47;;;4.40;100.00
12775;BME280;6451;42.630;23.382;2023-12-28T00:55:57;95503.38;;;4.46;100.00
12775;BME280;6451;42.630;23.382;2023-12-28T00:58:25;95486.50;;;4.35;100.00
12775;BME280;6451;42.630;23.382;2023-12-28T01:00:52;95414.78;;;3.92;100.00
12775;BME280;6451;42.630;23.382;2023-12-28T01:03:22;95484.59;;;4.36;100.00
12775;BME280;6451;42.630;23.382;2023-12-28T01:05:50;95508.44;;;4.53;100.00
12775;BME280;6451;42.630;23.382;2023-12-28T01:08:18;95517.06;;;4.44;100.00
12775;BME280;6451;42.630;23.382;2023-12-28T01:10:45;95511.16;;;4.47;100.00
12775;BME280;6451;42.630;23.382;2023-12-28T01:13:11;95480.59;;;4.33;100.00
12775;BME280;6451;42.630;23.382;2023-12-28T01:15:41;95514.03;;;4.56;100.00
12775;BME280;6451;42.630;23.382;2023-12-28T01:18:08;95518.06;;;4.59;100.00
12775;BME280;6451;42.630;23.382;2023-12-28T01:20:36;95511.88;;;4.58;100.00
12775;BME280;6451;42.630;23.382;2023-12-28T01:23:03;95518.81;;;4.69;100.00
12775;BME280;6451;42.630;23.382;2023-12-28T01:25:30;95489.53;;;4.63;100.00
12775;BME280;6451;42.630;23.382;2023-12-28T01:27:56;95513.66;;;4.73;100.00
12775;BME280;6451;42.630;23.382;2023-12-28T01:30:23;95513.44;;;4.64;100.00
12775;BME280;6451;42.630;23.382;2023-12-28T01:32:53;95505.38;;;4.64;100.00
12775;BME280;6451;42.630;23.382;2023-12-28T01:35:20;95502.22;;;4.52;100.00
12775;BME280;6451;42.630;23.382;2023-12-28T01:37:47;95498.03;;;4.41;100.00
12775;BME280;6451;42.630;23.382;2023-12-28T01:40:15;95506.88;;;4.46;100.00
12775;BME280;6451;42.630;23.382;2023-12-28T01:42:42;95503.31;;;4.51;100.00
12775;BME280;6451;42.630;23.382;2023-12-28T01:45:09;95487.00;;;4.42;100.00
12775;BME280;6451;42.630;23.382;2023-12-28T01:47:36;95502.72;;;4.59;100.00
12775;BME280;6451;42.630;23.382;2023-12-28T01:50:06;95501.66;;;4.60;100.00
12775;BME280;6451;42.630;23.382;2023-12-28T01:52:33;95494.41;;;4.61;100.00
12775;BME280;6451;42.630;23.382;2023-12-28T01:55:01;95498.50;;;4.48;100.00
12775;BME280;6451;42.630;23.382;2023-12-28T01:57:28;95503.00;;;4.58;100.00
12775;BME280;6451;42.630;23.382;2023-12-28T01:59:55;95510.03;;;4.54;100.00
12775;BME280;6451;42.630;23.382;2023-12-28T02:02:24;95494.63;;;4.64;100.00
12775;BME280;6451;42.630;23.382;2023-12-28T02:04:52;95494.16;;;4.52;100.00
12775;BME280;6451;42.630;23.382;2023-12-28T02:07:20;95493.16;;;4.43;100.00
12775;BME280;6451;42.630;23.382;2023-12-28T02:09:47;95489.16;;;4.40;100.00
12775;BME280;6451;42.630;23.382;2023-12-28T02:12:14;95460.28;;;4.22;100.00
12775;BME280;6451;42.630;23.382;2023-12-28T02:14:41;95502.53;;;4.51;100.00
12775;BME280;6451;42.630;23.382;2023-12-28T02:17:13;95497.19;;;4.45;100.00
12775;BME280;6451;42.630;23.382;2023-12-28T02:19:45;95482.59;;;4.57;100.00
12775;BME280;6451;42.630;23.382;2023-12-28T02:22:14;95481.72;;;4.27;100.00
12775;BME280;6451;42.630;23.382;2023-12-28T02:25:03;95415.41;;;3.78;100.00
12775;BME280;6451;42.630;23.382;2023-12-28T02:27:30;95473.44;;;4.18;100.00
12775;BME280;6451;42.630;23.382;2023-12-28T02:29:57;95485.75;;;4.30;100.00
12775;BME280;6451;42.630;23.382;2023-12-28T02:32:32;95471.28;;;4.21;100.00
12775;BME280;6451;42.630;23.382;2023-12-28T02:35:14;95484.38;;;4.32;100.00
12775;BME280;6451;42.630;23.382;2023-12-28T02:37:42;95487.38;;;4.21;100.00
12775;BME280;6451;42.630;23.382;2023-12-28T02:40:14;95438.19;;;3.81;100.00
12775;BME280;6451;42.630;23.382;2023-12-28T02:42:42;95477.28;;;4.02;100.00
12775;BME280;6451;42.630;23.382;2023-12-28T02:45:10;95492.59;;;4.07;100.00
12775;BME280;6451;42.630;23.382;2023-12-28T02:47:37;95449.72;;;3.86;100.00
12775;BME280;6451;42.630;23.382;2023-12-28T02:50:05;95491.81;;;3.96;100.00
12775;BME280;6451;42.630;23.382;2023-12-28T02:52:32;95496.38;;;4.01;100.00
12775;BME280;6451;42.630;23.382;2023-12-28T02:54:59;95495.50;;;4.15;100.00
12775;BME280;6451;42.630;23.382;2023-12-28T02:57:27;95469.25;;;3.97;100.00
12775;BME280;6451;42.630;23.382;2023-12-28T02:59:54;95485.06;;;3.99;100.00
12775;BME280;6451;42.630;23.382;2023-12-28T03:02:22;95462.03;;;3.93;100.00
12775;BME280;6451;42.630;23.382;2023-12-28T03:04:49;95465.75;;;3.97;100.00
12775;BME280;6451;42.630;23.382;2023-12-28T03:07:16;95473.28;;;4.00;100.00
12775;BME280;6451;42.630;23.382;2023-12-28T03:09:43;95465.47;;;3.98;100.00
12775;BME280;6451;42.630;23.382;2023-12-28T03:12:10;95462.78;;;4.03;100.00
12775;BME280;6451;42.630;23.382;2023-12-28T03:14:38;95411.75;;;3.54;100.00
12775;BME280;6451;42.630;23.382;2023-12-28T03:17:05;95453.50;;;3.80;100.00
12775;BME280;6451;42.630;23.382;2023-12-28T03:19:32;95454.88;;;3.68;100.00
12775;BME280;6451;42.630;23.382;2023-12-28T03:21:59;95458.94;;;3.65;100.00
12775;BME280;6451;42.630;23.382;2023-12-28T03:24:26;95453.03;;;3.63;100.00
12775;BME280;6451;42.630;23.382;2023-12-28T03:26:53;95452.53;;;3.61;100.00
12775;BME280;6451;42.630;23.382;2023-12-28T03:29:19;95462.69;;;3.69;100.00
12775;BME280;6451;42.630;23.382;2023-12-28T03:31:48;95449.22;;;3.74;100.00
12775;BME280;6451;42.630;23.382;2023-12-28T03:34:15;95462.06;;;3.82;100.00
12775;BME280;6451;42.630;23.382;2023-12-28T03:36:43;95424.09;;;3.50;100.00
12775;BME280;6451;42.630;23.382;2023-12-28T03:39:10;95453.03;;;3.68;100.00
12775;BME280;6451;42.630;23.382;2023-12-28T03:41:36;95461.84;;;3.74;100.00
12775;BME280;6451;42.630;23.382;2023-12-28T03:44:03;95485.13;;;3.94;100.00
12775;BME280;6451;42.630;23.382;2023-12-28T03:46:30;95490.50;;;3.94;100.00
12775;BME280;6451;42.630;23.382;2023-12-28T03:48:58;95486.50;;;3.91;100.00
12775;BME280;6451;42.630;23.382;2023-12-28T03:51:25;95481.13;;;3.81;100.00
12775;BME280;6451;42.630;23.382;2023-12-28T03:53:52;95476.13;;;3.64;100.00
12775;BME280;6451;42.630;23.382;2023-12-28T03:56:21;95428.72;;;3.34;100.00
12775;BME280;6451;42.630;23.382;2023-12-28T03:58:48;95511.97;;;3.88;100.00
12775;BME280;6451;42.630;23.382;2023-12-28T04:01:16;95513.84;;;3.93;100.00
12775;BME280;6451;42.630;23.382;2023-12-28T04:03:46;95512.50;;;3.96;100.00
12775;BME280;6451;42.630;23.382;2023-12-28T04:06:15;95452.19;;;3.68;100.00
12775;BME280;6451;42.630;23.382;2023-12-28T04:08:42;95489.34;;;4.05;100.00
12775;BME280;6451;42.630;23.382;2023-12-28T04:11:09;95487.47;;;4.05;100.00
12775;BME280;6451;42.630;23.382;2023-12-28T04:13:36;95475.75;;;3.91;100.00
12775;BME280;6451;42.630;23.382;2023-12-28T04:16:05;95505.25;;;3.96;100.00
12775;BME280;6451;42.630;23.382;2023-12-28T04:18:31;95478.09;;;3.98;100.00
12775;BME280;6451;42.630;23.382;2023-12-28T04:20:58;95492.09;;;3.95;100.00
12775;BME280;6451;42.630;23.382;2023-12-28T04:23:26;95486.50;;;3.81;100.00
12775;BME280;6451;42.630;23.382;2023-12-28T04:25:53;95501.28;;;3.78;100.00
12775;BME280;6451;42.630;23.382;2023-12-28T04:28:20;95475.31;;;3.58;100.00
12775;BME280;6451;42.630;23.382;2023-12-28T04:30:47;95497.81;;;3.73;100.00
12775;BME280;6451;42.630;23.382;2023-12-28T04:33:16;95496.44;;;3.80;100.00
12775;BME280;6451;42.630;23.382;2023-12-28T04:35:44;95481.41;;;3.84;100.00
12775;BME280;6451;42.630;23.382;2023-12-28T04:38:13;95502.56;;;3.96;100.00
12775;BME280;6451;42.630;23.382;2023-12-28T04:40:42;95492.59;;;4.07;100.00
12775;BME280;6451;42.630;23.382;2023-12-28T04:43:08;95457.41;;;3.98;100.00
12775;BME280;6451;42.630;23.382;2023-12-28T04:45:35;95490.34;;;4.19;100.00
12775;BME280;6451;42.630;23.382;2023-12-28T04:48:03;95497.59;;;4.18;100.00
12775;BME280;6451;42.630;23.382;2023-12-28T04:50:29;95465.56;;;4.32;100.00
12775;BME280;6451;42.630;23.382;2023-12-28T04:52:56;95483.47;;;4.81;100.00
12775;BME280;6451;42.630;23.382;2023-12-28T04:55:23;95491.84;;;4.80;100.00
12775;BME280;6451;42.630;23.382;2023-12-28T04:57:52;95485.38;;;4.81;100.00
12775;BME280;6451;42.630;23.382;2023-12-28T05:00:19;95455.50;;;4.53;100.00
12775;BME280;6451;42.630;23.382;2023-12-28T05:02:45;95491.75;;;4.90;100.00
12775;BME280;6451;42.630;23.382;2023-12-28T05:05:12;95478.56;;;4.93;100.00
12775;BME280;6451;42.630;23.382;2023-12-28T05:07:39;95491.41;;;4.96;100.00
12775;BME280;6451;42.630;23.382;2023-12-28T05:10:07;95497.56;;;5.02;100.00
12775;BME280;6451;42.630;23.382;2023-12-28T05:12:34;95482.22;;;4.29;100.00
12775;BME280;6451;42.630;23.382;2023-12-28T05:15:04;95262.69;;;2.78;100.00
12775;BME280;6451;42.630;23.382;2023-12-28T05:17:32;95504.28;;;4.26;100.00
12775;BME280;6451;42.630;23.382;2023-12-28T05:19:58;95508.91;;;4.15;100.00
12775;BME280;6451;42.630;23.382;2023-12-28T05:22:26;95453.03;;;3.68;100.00
12775;BME280;6451;42.630;23.382;2023-12-28T05:24:54;95508.28;;;3.74;100.00
12775;BME280;6451;42.630;23.382;2023-12-28T05:27:20;95507.00;;;3.61;100.00
12775;BME280;6451;42.630;23.382;2023-12-28T05:29:47;95500.06;;;3.45;100.00
12775;BME280;6451;42.630;23.382;2023-12-28T05:32:16;95452.69;;;2.95;100.00
12775;BME280;6451;42.630;23.382;2023-12-28T05:34:43;95419.47;;;2.75;100.00
12775;BME280;6451;42.630;23.382;2023-12-28T05:37:10;95500.91;;;3.25;100.00
12775;BME280;6451;42.630;23.382;2023-12-28T05:39:37;95509.22;;;3.24;100.00
12775;BME280;6451;42.630;23.382;2023-12-28T05:42:04;95514.31;;;3.25;100.00
12775;BME280;6451;42.630;23.382;2023-12-28T05:44:31;95504.13;;;3.17;100.00
12775;BME280;6451;42.630;23.382;2023-12-28T05:46:58;95522.38;;;3.30;100.00
12775;BME280;6451;42.630;23.382;2023-12-28T05:49:26;95516.44;;;3.33;100.00
12775;BME280;6451;42.630;23.382;2023-12-28T05:51:54;95504.13;;;3.17;100.00
12775;BME280;6451;42.630;23.382;2023-12-28T05:54:21;95446.78;;;2.83;100.00
12775;BME280;6451;42.630;23.382;2023-12-28T05:56:47;95521.03;;;3.18;100.00
12775;BME280;6451;42.630;23.382;2023-12-28T05:59:14;95510.84;;;3.25;100.00
12775;BME280;6451;42.630;23.382;2023-12-28T06:01:42;95526.09;;;3.29;100.00
12775;BME280;6451;42.630;23.382;2023-12-28T06:04:09;95523.72;;;3.23;100.00
12775;BME280;6451;42.630;23.382;2023-12-28T06:06:37;95532.00;;;3.21;100.00
12775;BME280;6451;42.630;23.382;2023-12-28T06:09:04;95520.22;;;3.17;100.00
12775;BME280;6451;42.630;23.382;2023-12-28T06:11:31;95524.25;;;3.30;100.00
12775;BME280;6451;42.630;23.382;2023-12-28T06:13:58;95514.34;;;3.15;100.00
12775;BME280;6451;42.630;23.382;2023-12-28T06:16:25;95487.78;;;3.09;100.00
12775;BME280;6451;42.630;23.382;2023-12-28T06:18:52;95519.63;;;3.51;100.00
12775;BME280;6451;42.630;23.382;2023-12-28T06:21:18;95529.84;;;3.39;100.00
12775;BME280;6451;42.630;23.382;2023-12-28T06:23:47;95486.41;;;3.21;100.00
12775;BME280;6451;42.630;23.382;2023-12-28T06:26:14;95486.69;;;3.20;100.00
12775;BME280;6451;42.630;23.382;2023-12-28T06:28:41;95499.28;;;3.34;100.00
12775;BME280;6451;42.630;23.382;2023-12-28T06:31:08;95532.72;;;3.78;100.00
12775;BME280;6451;42.630;23.382;2023-12-28T06:33:35;95531.34;;;3.75;100.00
12775;BME280;6451;42.630;23.382;2023-12-28T06:36:05;95524.88;;;3.92;100.00
12775;BME280;6451;42.630;23.382;2023-12-28T06:38:32;95536.88;;;4.14;100.00
12775;BME280;6451;42.630;23.382;2023-12-28T06:41:00;95536.53;;;4.26;100.00
12775;BME280;6451;42.630;23.382;2023-12-28T06:43:27;95526.16;;;4.04;100.00
12775;BME280;6451;42.630;23.382;2023-12-28T06:45:54;95514.44;;;3.75;100.00
12775;BME280;6451;42.630;23.382;2023-12-28T06:48:21;95528.09;;;3.94;100.00
12775;BME280;6451;42.630;23.382;2023-12-28T06:50:48;95486.66;;;4.10;100.00
12775;BME280;6451;42.630;23.382;2023-12-28T06:53:15;95559.47;;;4.58;100.00
12775;BME280;6451;42.630;23.382;2023-12-28T06:55:42;95544.44;;;4.52;100.00
12775;BME280;6451;42.630;23.382;2023-12-28T06:58:10;95543.09;;;4.54;100.00
12775;BME280;6451;42.630;23.382;2023-12-28T07:00:37;95546.44;;;4.31;100.00
12775;BME280;6451;42.630;23.382;2023-12-28T07:03:04;95548.78;;;4.47;100.00
12775;BME280;6451;42.630;23.382;2023-12-28T07:05:32;95554.97;;;4.43;100.00
12775;BME280;6451;42.630;23.382;2023-12-28T07:07:59;95563.06;;;4.38;100.00
12775;BME280;6451;42.630;23.382;2023-12-28T07:10:26;95522.22;;;4.41;100.00
12775;BME280;6451;42.630;23.382;2023-12-28T07:12:52;95541.53;;;4.43;100.00
12775;BME280;6451;42.630;23.382;2023-12-28T07:15:21;95519.22;;;4.42;100.00
12775;BME280;6451;42.630;23.382;2023-12-28T07:17:48;95520.81;;;4.49;100.00
12775;BME280;6451;42.630;23.382;2023-12-28T07:20:15;95550.38;;;4.49;100.00
12775;BME280;6451;42.630;23.382;2023-12-28T07:22:42;95547.56;;;4.69;100.00
12775;BME280;6451;42.630;23.382;2023-12-28T07:25:09;95545.78;;;4.93;100.00
12775;BME280;6451;42.630;23.382;2023-12-28T07:27:36;95535.47;;;4.66;100.00
12775;BME280;6451;42.630;23.382;2023-12-28T07:30:04;95534.78;;;4.90;100.00
12775;BME280;6451;42.630;23.382;2023-12-28T07:32:33;95536.59;;;4.99;100.00
12775;BME280;6451;42.630;23.382;2023-12-28T07:35:00;95537.09;;;5.07;100.00
12775;BME280;6451;42.630;23.382;2023-12-28T07:37:26;95544.22;;;5.21;100.00
12775;BME280;6451;42.630;23.382;2023-12-28T07:39:53;95522.72;;;5.16;100.00
12775;BME280;6451;42.630;23.382;2023-12-28T07:42:20;95551.97;;;5.57;100.00
12775;BME280;6451;42.630;23.382;2023-12-28T07:44:47;95560.28;;;5.61;100.00
12775;BME280;6451;42.630;23.382;2023-12-28T07:47:14;95556.09;;;5.73;100.00
12775;BME280;6451;42.630;23.382;2023-12-28T07:49:42;95552.25;;;5.79;100.00
12775;BME280;6451;42.630;23.382;2023-12-28T07:52:09;95553.06;;;5.80;100.00
12775;BME280;6451;42.630;23.382;2023-12-28T07:54:36;95551.13;;;5.91;100.00
12775;BME280;6451;42.630;23.382;2023-12-28T07:57:04;95549.38;;;6.00;100.00
12775;BME280;6451;42.630;23.382;2023-12-28T07:59:30;95559.28;;;6.04;100.00
12775;BME280;6451;42.630;23.382;2023-12-28T08:01:57;95530.53;;;6.00;100.00
12775;BME280;6451;42.630;23.382;2023-12-28T08:04:24;95547.66;;;6.09;100.00
12775;BME280;6451;42.630;23.382;2023-12-28T08:06:52;95443.25;;;5.53;100.00
12775;BME280;6451;42.630;23.382;2023-12-28T08:09:19;95530.91;;;6.12;100.00
12775;BME280;6451;42.630;23.382;2023-12-28T08:11:46;95535.91;;;6.00;100.00
12775;BME280;6451;42.630;23.382;2023-12-28T08:14:13;95518.81;;;6.09;100.00
12775;BME280;6451;42.630;23.382;2023-12-28T08:16:41;95524.78;;;6.06;100.00
12775;BME280;6451;42.630;23.382;2023-12-28T08:19:08;95553.53;;;6.35;100.00
12775;BME280;6451;42.630;23.382;2023-12-28T08:21:35;95558.56;;;6.41;100.00
12775;BME280;6451;42.630;23.382;2023-12-28T08:24:04;95550.81;;;6.78;100.00
12775;BME280;6451;42.630;23.382;2023-12-28T08:26:31;95526.09;;;6.52;100.00
12775;BME280;6451;42.630;23.382;2023-12-28T08:28:58;95548.47;;;6.52;100.00
12775;BME280;6451;42.630;23.382;2023-12-28T08:31:25;95501.16;;;6.22;100.00
12775;BME280;6451;42.630;23.382;2023-12-28T08:33:52;95516.47;;;6.64;100.00
12775;BME280;6451;42.630;23.382;2023-12-28T08:36:18;95548.03;;;6.64;100.00
12775;BME280;6451;42.630;23.382;2023-12-28T08:38:45;95418.66;;;5.83;100.00
12775;BME280;6451;42.630;23.382;2023-12-28T08:41:23;95535.84;;;6.66;100.00
12775;BME280;6451;42.630;23.382;2023-12-28T08:43:50;95518.63;;;6.81;100.00
12775;BME280;6451;42.630;23.382;2023-12-28T08:46:18;95515.50;;;6.93;100.00
12775;BME280;6451;42.630;23.382;2023-12-28T08:48:45;95500.78;;;6.85;100.00
12775;BME280;6451;42.630;23.382;2023-12-28T08:51:12;95522.72;;;7.30;100.00
12775;BME280;6451;42.630;23.382;2023-12-28T08:53:40;95501.47;;;7.10;100.00
12775;BME280;6451;42.630;23.382;2023-12-28T08:56:16;95515.13;;;7.00;100.00
12775;BME280;6451;42.630;23.382;2023-12-28T08:58:45;95450.50;;;6.76;100.00
12775;BME280;6451;42.630;23.382;2023-12-28T09:01:16;95489.78;;;7.14;100.00
12775;BME280;6451;42.630;23.382;2023-12-28T09:03:43;95508.84;;;7.50;100.00
12775;BME280;6451;42.630;23.382;2023-12-28T09:06:10;95407.25;;;6.94;100.00
12775;BME280;6451;42.630;23.382;2023-12-28T09:08:37;95469.06;;;7.56;100.00
12775;BME280;6451;42.630;23.382;2023-12-28T09:11:04;95476.38;;;7.69;100.00
12775;BME280;6451;42.630;23.382;2023-12-28T09:13:31;95498.88;;;7.78;100.00
12775;BME280;6451;42.630;23.382;2023-12-28T09:15:59;95496.69;;;7.80;100.00
12775;BME280;6451;42.630;23.382;2023-12-28T09:18:26;95466.84;;;7.86;100.00
12775;BME280;6451;42.630;23.382;2023-12-28T09:20:53;95485.38;;;8.06;100.00
12775;BME280;6451;42.630;23.382;2023-12-28T09:23:20;95481.47;;;7.98;100.00
12775;BME280;6451;42.630;23.382;2023-12-28T09:25:47;95469.16;;;7.92;100.00
12775;BME280;6451;42.630;23.382;2023-12-28T09:28:14;95482.38;;;7.80;100.00
12775;BME280;6451;42.630;23.382;2023-12-28T09:30:41;95466.78;;;7.91;100.00
12775;BME280;6451;42.630;23.382;2023-12-28T09:33:09;95472.66;;;7.79;100.00
12775;BME280;6451;42.630;23.382;2023-12-28T09:35:37;95466.84;;;7.86;100.00
12775;BME280;6451;42.630;23.382;2023-12-28T09:38:04;95432.84;;;7.85;100.00
12775;BME280;6451;42.630;23.382;2023-12-28T09:40:30;95465.41;;;8.29;100.00
12775;BME280;6451;42.630;23.382;2023-12-28T09:43:03;95241.28;;;6.97;100.00
12775;BME280;6451;42.630;23.382;2023-12-28T09:45:32;95454.59;;;8.29;100.00
12775;BME280;6451;42.630;23.382;2023-12-28T09:47:59;95438.72;;;8.00;100.00
12775;BME280;6451;42.630;23.382;2023-12-28T09:50:29;95449.75;;;8.54;100.00
12775;BME280;6451;42.630;23.382;2023-12-28T09:52:56;95438.81;;;8.59;100.00
12775;BME280;6451;42.630;23.382;2023-12-28T09:55:23;95413.38;;;8.60;100.00
12775;BME280;6451;42.630;23.382;2023-12-28T09:57:51;95434.28;;;8.68;100.00
12775;BME280;6451;42.630;23.382;2023-12-28T10:00:17;95411.69;;;8.73;100.00
12775;BME280;6451;42.630;23.382;2023-12-28T10:02:44;95424.69;;;8.84;100.00
12775;BME280;6451;42.630;23.382;2023-12-28T10:05:12;95417.47;;;8.57;100.00
12775;BME280;6451;42.630;23.382;2023-12-28T10:07:44;95412.41;;;8.42;100.00
12775;BME280;6451;42.630;23.382;2023-12-28T10:10:11;95407.78;;;8.43;100.00
12775;BME280;6451;42.630;23.382;2023-12-28T10:12:38;95390.28;;;8.62;100.00
12775;BME280;6451;42.630;23.382;2023-12-28T10:15:05;95388.44;;;8.49;100.00
12775;BME280;6451;42.630;23.382;2023-12-28T10:17:33;95378.72;;;8.48;100.00
12775;BME280;6451;42.630;23.382;2023-12-28T10:20:01;95398.47;;;8.71;100.00
12775;BME280;6451;42.630;23.382;2023-12-28T10:22:30;95398.78;;;8.92;100.00
12775;BME280;6451;42.630;23.382;2023-12-28T10:24:59;95397.22;;;9.00;100.00
12775;BME280;6451;42.630;23.382;2023-12-28T10:27:26;95387.38;;;9.04;100.00
12775;BME280;6451;42.630;23.382;2023-12-28T10:29:54;95377.38;;;8.82;100.00
12775;BME280;6451;42.630;23.382;2023-12-28T10:32:22;95377.47;;;8.99;100.00
12775;BME280;6451;42.630;23.382;2023-12-28T10:34:51;95354.66;;;8.91;100.00
12775;BME280;6451;42.630;23.382;2023-12-28T10:37:20;95364.31;;;9.06;100.00
12775;BME280;6451;42.630;23.382;2023-12-28T10:39:47;95353.41;;;9.29;100.00
12775;BME280;6451;42.630;23.382;2023-12-28T10:42:26;95332.81;;;9.28;100.00
12775;BME280;6451;42.630;23.382;2023-12-28T10:45:02;95328.91;;;9.42;100.00
12775;BME280;6451;42.630;23.382;2023-12-28T10:47:32;95326.84;;;9.39;100.00
12775;BME280;6451;42.630;23.382;2023-12-28T10:50:02;95322.34;;;9.35;100.00
12775;BME280;6451;42.630;23.382;2023-12-28T10:52:31;95329.22;;;9.41;100.00
12775;BME280;6451;42.630;23.382;2023-12-28T10:55:09;95312.06;;;9.63;100.00
12775;BME280;6451;42.630;23.382;2023-12-28T10:57:53;95128.50;;;8.59;100.00
12775;BME280;6451;42.630;23.382;2023-12-28T11:00:23;95246.16;;;9.28;100.00
12775;BME280;6451;42.630;23.382;2023-12-28T11:02:53;95220.53;;;9.25;100.00
12775;BME280;6451;42.630;23.382;2023-12-28T11:05:23;95284.38;;;9.83;100.00
12775;BME280;6451;42.630;23.382;2023-12-28T11:07:50;95296.16;;;9.87;100.00
12775;BME280;6451;42.630;23.382;2023-12-28T11:10:20;95297.13;;;9.74;100.00
12775;BME280;6451;42.630;23.382;2023-12-28T11:12:51;95240.81;;;9.54;100.00
12775;BME280;6451;42.630;23.382;2023-12-28T11:15:19;95281.31;;;9.76;100.00
12775;BME280;6451;42.630;23.382;2023-12-28T11:17:46;95286.44;;;9.86;100.00
12775;BME280;6451;42.630;23.382;2023-12-28T11:20:14;95273.00;;;9.72;100.00
12775;BME280;6451;42.630;23.382;2023-12-28T11:22:44;95267.44;;;10.03;100.00
12775;BME280;6451;42.630;23.382;2023-12-28T11:25:15;95261.88;;;10.26;100.00
12775;BME280;6451;42.630;23.382;2023-12-28T11:27:44;95241.78;;;9.84;100.00
12775;BME280;6451;42.630;23.382;2023-12-28T11:30:13;95254.84;;;10.08;100.00
12775;BME280;6451;42.630;23.382;2023-12-28T11:32:41;95271.47;;;9.97;100.00
12775;BME280;6451;42.630;23.382;2023-12-28T11:35:11;95249.25;;;10.21;100.00
12775;BME280;6451;42.630;23.382;2023-12-28T11:37:41;95248.31;;;10.35;100.00
12775;BME280;6451;42.630;23.382;2023-12-28T11:40:11;95239.03;;;10.18;100.00
12775;BME280;6451;42.630;23.382;2023-12-28T11:42:48;95248.78;;;10.37;100.00
12775;BME280;6451;42.630;23.382;2023-12-28T11:45:17;95239.72;;;10.24;100.00
12775;BME280;6451;42.630;23.382;2023-12-28T11:47:45;95254.31;;;10.66;100.00
12775;BME280;6451;42.630;23.382;2023-12-28T11:50:12;95249.88;;;10.53;100.00
12775;BME280;6451;42.630;23.382;2023-12-28T11:52:39;95251.63;;;10.49;100.00
12775;BME280;6451;42.630;23.382;2023-12-28T11:55:07;95236.66;;;10.25;100.00
12775;BME280;6451;42.630;23.382;2023-12-28T11:57:36;95189.44;;;10.26;100.00
12775;BME280;6451;42.630;23.382;2023-12-28T12:00:05;95246.63;;;10.68;100.00
12775;BME280;6451;42.630;23.382;2023-12-28T12:02:35;95230.78;;;10.79;100.00
12775;BME280;6451;42.630;23.382;2023-12-28T12:05:02;95228.03;;;10.88;100.00
12775;BME280;6451;42.630;23.382;2023-12-28T12:07:30;95151.13;;;10.37;100.00
12775;BME280;6451;42.630;23.382;2023-12-28T12:09:57;95228.03;;;10.88;100.00
12775;BME280;6451;42.630;23.382;2023-12-28T12:12:24;95227.34;;;10.99;100.00
12775;BME280;6451;42.630;23.382;2023-12-28T12:14:51;95208.50;;;10.94;100.00
12775;BME280;6451;42.630;23.382;2023-12-28T12:17:18;95219.66;;;11.01;100.00
12775;BME280;6451;42.630;23.382;2023-12-28T12:19:47;95219.53;;;10.98;100.00
12775;BME280;6451;42.630;23.382;2023-12-28T12:22:16;95215.41;;;11.21;100.00
12775;BME280;6451;42.630;23.382;2023-12-28T12:24:44;95206.84;;;11.10;100.00
12775;BME280;6451;42.630;23.382;2023-12-28T12:27:13;95206.00;;;11.19;100.00
12775;BME280;6451;42.630;23.382;2023-12-28T12:29:40;95208.41;;;11.11;100.00
12775;BME280;6451;42.630;23.382;2023-12-28T12:32:07;95191.47;;;11.14;100.00
12775;BME280;6451;42.630;23.382;2023-12-28T12:34:35;95208.41;;;11.20;100.00
12775;BME280;6451;42.630;23.382;2023-12-28T12:37:03;95218.88;;;11.01;100.00
12775;BME280;6451;42.630;23.382;2023-12-28T12:39:32;95190.34;;;11.16;100.00
12775;BME280;6451;42.630;23.382;2023-12-28T12:41:59;95165.03;;;10.65;100.00
12775;BME280;6451;42.630;23.382;2023-12-28T12:44:26;95218.50;;;11.11;100.00
12775;BME280;6451;42.630;23.382;2023-12-28T12:46:59;95217.75;;;11.31;100.00
12775;BME280;6451;42.630;23.382;2023-12-28T12:49:26;95215.88;;;11.23;100.00
12775;BME280;6451;42.630;23.382;2023-12-28T12:51:53;95221.25;;;11.32;100.00
12775;BME280;6451;42.630;23.382;2023-12-28T12:54:21;95209.75;;;11.35;100.00
12775;BME280;6451;42.630;23.382;2023-12-28T12:56:49;95209.47;;;11.28;100.00
12775;BME280;6451;42.630;23.382;2023-12-28T12:59:18;95181.81;;;11.26;100.00
12775;BME280;6451;42.630;23.382;2023-12-28T13:01:46;95189.09;;;11.43;100.00
12775;BME280;6451;42.630;23.382;2023-12-28T13:04:16;95206.75;;;11.49;100.00